Time;durP1;ratioP1;P1;durP2;ratioP2;P2;SDS_P1;SDS_P2;PMS_P1;PMS_P2;Temp;Humidity;BMP_temperature;BMP_pressure;BME280_temperature;BME280_humidity;BME280_pressure;Samples;Min_cycle;Max_cycle;Signal;HPM_P1;HPM_P2
2023/09/29 00:02:55;;;;;;;13.50;10.50;;;;;;;13.95;77.37;100353.17;219342;1257;140365;-71
2023/09/29 00:08:01;;;;;;;11.80;9.10;;;;;;;13.91;77.27;100358.16;218174;1260;141253;-71
2023/09/29 00:13:06;;;;;;;15.80;8.50;;;;;;;13.86;77.04;100356.83;219923;1258;141628;-72
2023/09/29 00:18:11;;;;;;;11.50;9.50;;;;;;;13.72;77.14;100353.48;219626;1257;140383;-71
2023/09/29 00:23:16;;;;;;;11.30;9.20;;;;;;;13.59;77.41;100352.70;220469;1257;140261;-75
2023/09/29 00:28:21;;;;;;;12.60;9.80;;;;;;;13.53;77.91;100350.22;219594;1257;140843;-80
2023/09/29 00:33:27;;;;;;;16.90;10.10;;;;;;;13.53;78.21;100346.88;218974;1257;141246;-81
2023/09/29 00:38:33;;;;;;;13.70;9.40;;;;;;;13.54;78.22;100350.13;219563;1257;143676;-81
2023/09/29 00:43:39;;;;;;;10.00;9.00;;;;;;;13.54;77.94;100355.69;218278;1259;140289;-82
2023/09/29 00:48:45;;;;;;;;;;;;;;;13.46;77.76;100352.48;218529;1257;139933;-81
2023/09/29 00:53:51;;;;;;;12.00;8.50;;;;;;;13.28;77.88;100350.55;219798;1259;126725;-81
2023/09/29 00:58:56;;;;;;;11.20;9.00;;;;;;;13.17;78.26;100349.55;218218;1256;140143;-81
2023/09/29 01:04:00;;;;;;;11.90;10.60;;;;;;;13.08;78.35;100346.52;218344;1257;141041;-81
2023/09/29 01:09:06;;;;;;;12.00;9.80;;;;;;;12.97;78.46;100345.90;218349;1257;141545;-80
2023/09/29 01:14:14;;;;;;;17.20;11.20;;;;;;;12.87;78.78;100342.52;218859;1257;141659;-80
2023/09/29 01:19:20;;;;;;;10.30;9.00;;;;;;;12.78;79.08;100342.56;218130;1258;141217;-79
2023/09/29 01:24:26;;;;;;;13.40;10.50;;;;;;;12.73;79.48;100341.97;218128;1258;140122;-70
2023/09/29 01:29:30;;;;;;;13.20;8.90;;;;;;;12.66;79.44;100332.70;218015;1257;142434;-70
2023/09/29 01:34:34;;;;;;;12.00;10.60;;;;;;;12.62;79.39;100329.93;218378;1257;139908;-70
2023/09/29 01:39:39;;;;;;;12.90;9.00;;;;;;;12.57;79.21;100329.45;218206;1260;141074;-71
2023/09/29 01:44:43;;;;;;;12.20;10.00;;;;;;;12.46;79.57;100331.95;218824;1257;140762;-71
2023/09/29 01:49:49;;;;;;;10.80;8.80;;;;;;;12.38;79.64;100330.15;218454;1257;140878;-70
2023/09/29 01:54:55;;;;;;;13.30;10.20;;;;;;;12.32;79.89;100326.05;217630;1257;140165;-70
2023/09/29 02:00:01;;;;;;;16.10;9.60;;;;;;;12.28;80.22;100327.17;219769;1257;140855;-69
2023/09/29 02:05:12;;;;;;;28.10;12.80;;;;;;;12.27;80.37;100329.39;217873;1257;140132;-70
2023/09/29 02:10:19;;;;;;;14.00;10.80;;;;;;;12.29;80.24;100332.69;219990;1254;141289;-72
2023/09/29 02:15:31;;;;;;;13.20;11.10;;;;;;;12.29;80.31;100329.80;219320;1257;140743;-72
2023/09/29 02:20:39;;;;;;;12.50;10.50;;;;;;;12.25;79.91;100326.20;219690;1257;140434;-70
2023/09/29 02:25:44;;;;;;;12.80;10.60;;;;;;;12.24;80.00;100327.08;219669;1256;140754;-72
2023/09/29 02:30:50;;;;;;;25.70;11.80;;;;;;;12.25;80.31;100326.41;220647;1256;141017;-72
2023/09/29 02:35:56;;;;;;;13.90;9.90;;;;;;;12.25;79.97;100329.99;220206;1255;140049;-71
2023/09/29 02:41:01;;;;;;;13.20;10.20;;;;;;;12.25;80.52;100321.44;218912;1256;140414;-72
2023/09/29 02:46:14;;;;;;;11.20;9.90;;;;;;;12.27;80.93;100319.98;218655;1257;140821;-71
2023/09/29 02:51:20;;;;;;;17.40;11.90;;;;;;;12.30;81.38;100314.45;218344;1257;140017;-74
2023/09/29 02:56:26;;;;;;;16.00;10.40;;;;;;;12.34;81.74;100311.61;219277;1256;140902;-77
2023/09/29 03:01:30;;;;;;;14.40;10.80;;;;;;;12.42;81.89;100311.25;218604;1257;142588;-80
2023/09/29 03:06:36;;;;;;;16.40;12.70;;;;;;;12.48;82.02;100314.73;219449;1257;140711;-71
2023/09/29 03:11:41;;;;;;;12.20;9.10;;;;;;;12.52;82.13;100307.89;218851;1257;141307;-74
2023/09/29 03:16:47;;;;;;;18.90;11.80;;;;;;;12.58;82.29;100307.05;218132;1259;140717;-71
2023/09/29 03:21:52;;;;;;;15.80;10.60;;;;;;;12.60;82.49;100300.80;218799;1257;140901;-70
2023/09/29 03:26:57;;;;;;;14.80;11.00;;;;;;;12.62;82.68;100298.45;217921;1257;140991;-70
2023/09/29 03:32:03;;;;;;;21.40;12.00;;;;;;;12.64;82.62;100297.73;218697;1257;140322;-78
2023/09/29 03:37:08;;;;;;;17.80;10.70;;;;;;;12.63;82.67;100296.91;218114;1258;140070;-78
2023/09/29 03:42:14;;;;;;;15.20;12.00;;;;;;;12.63;82.90;100296.80;218539;1257;140995;-74
2023/09/29 03:47:20;;;;;;;17.70;11.80;;;;;;;12.64;82.85;100295.12;218390;1256;140712;-70
2023/09/29 03:52:32;;;;;;;15.50;10.20;;;;;;;12.66;82.93;100290.39;219655;1256;140490;-71
2023/09/29 03:57:41;;;;;;;17.80;10.80;;;;;;;12.68;82.87;100285.84;218150;1258;143418;-70
2023/09/29 04:02:49;;;;;;;14.40;12.50;;;;;;;12.71;83.00;100282.41;219407;1256;140889;-69
2023/09/29 04:07:55;;;;;;;18.20;12.00;;;;;;;12.73;83.07;100281.34;219205;1256;140637;-70
2023/09/29 04:12:58;;;;;;;17.20;11.50;;;;;;;12.78;83.11;100281.41;218491;1255;141229;-69
2023/09/29 04:18:03;;;;;;;17.40;13.80;;;;;;;12.80;82.94;100278.73;220320;1257;140630;-69
2023/09/29 04:23:07;;;;;;;14.80;11.70;;;;;;;12.83;82.57;100283.70;219971;1256;141441;-69
2023/09/29 04:28:13;;;;;;;13.90;12.40;;;;;;;12.81;82.11;100286.88;219179;1255;142623;-72
2023/09/29 04:33:18;;;;;;;15.80;12.00;;;;;;;12.74;81.75;100289.77;220272;1256;140958;-72
2023/09/29 04:38:22;;;;;;;11.80;10.30;;;;;;;12.57;81.15;100293.77;219455;1256;226676;-74
2023/09/29 04:43:28;;;;;;;11.70;9.50;;;;;;;12.39;81.20;100295.09;219046;1256;140185;-73
2023/09/29 04:48:35;;;;;;;15.60;11.10;;;;;;;12.29;81.31;100295.59;218600;1256;141050;-79
2023/09/29 04:53:41;;;;;;;14.70;11.50;;;;;;;12.21;81.26;100292.27;220655;1256;141341;-79
2023/09/29 04:58:46;;;;;;;11.80;10.30;;;;;;;12.18;81.41;100290.45;220126;1255;141621;-72
2023/09/29 05:03:53;;;;;;;15.00;13.40;;;;;;;12.16;81.33;100288.89;219694;1257;140872;-73
2023/09/29 05:08:59;;;;;;;20.80;12.90;;;;;;;12.18;81.62;100287.45;219368;1256;140766;-73
2023/09/29 05:14:05;;;;;;;16.80;12.30;;;;;;;12.23;82.02;100287.77;218066;1259;142362;-77
2023/09/29 05:19:10;;;;;;;11.50;10.20;;;;;;;12.30;82.34;100285.78;218675;1256;141358;-74
2023/09/29 05:24:14;;;;;;;22.10;13.30;;;;;;;12.38;82.73;100286.26;218211;1259;142260;-78
2023/09/29 05:29:19;;;;;;;19.70;13.60;;;;;;;12.48;82.94;100283.55;218407;1256;141280;-77
2023/09/29 05:34:28;;;;;;;20.40;15.70;;;;;;;12.61;83.29;100284.06;219202;1256;141257;-73
2023/09/29 05:39:33;;;;;;;19.40;12.90;;;;;;;12.77;83.69;100280.80;218294;1257;140322;-70
2023/09/29 05:44:37;;;;;;;17.40;12.00;;;;;;;12.97;84.08;100277.27;218524;1259;140347;-73
2023/09/29 05:49:41;;;;;;;20.70;13.60;;;;;;;13.16;84.07;100279.45;218814;1256;140546;-73
2023/09/29 05:54:46;;;;;;;16.30;10.00;;;;;;;13.35;83.91;100283.79;218990;1256;140472;-72
2023/09/29 05:59:52;;;;;;;15.80;12.10;;;;;;;13.55;84.02;100280.77;218516;1256;141137;-71
2023/09/29 06:04:56;;;;;;;16.70;11.70;;;;;;;13.75;83.86;100282.63;219431;1256;140493;-70
2023/09/29 06:10:04;;;;;;;16.40;10.70;;;;;;;13.97;83.81;100291.04;219712;1256;140196;-72
2023/09/29 06:15:10;;;;;;;14.40;12.60;;;;;;;14.17;83.66;100292.70;219082;1257;141776;-71
2023/09/29 06:20:14;;;;;;;26.00;12.90;;;;;;;14.38;83.52;100290.89;219037;1255;140817;-73
2023/09/29 06:25:19;;;;;;;19.10;12.50;;;;;;;14.60;83.31;100295.18;219691;1256;140279;-74
2023/09/29 06:30:23;;;;;;;15.80;10.70;;;;;;;14.81;83.09;100294.23;220112;1256;140504;-76
2023/09/29 06:35:28;;;;;;;13.70;11.90;;;;;;;15.01;82.76;100293.94;219844;1258;140562;-80
2023/09/29 06:40:32;;;;;;;14.20;11.80;;;;;;;15.29;82.32;100298.45;219398;1256;141596;-77
2023/09/29 06:45:37;;;;;;;14.20;12.00;;;;;;;15.84;81.74;100301.55;218235;1255;139849;-71
2023/09/29 06:51:02;;;;;;;16.90;11.10;;;;;;;16.27;81.10;100303.95;219356;1255;141302;-74
2023/09/29 06:56:07;;;;;;;14.60;11.10;;;;;;;16.55;80.53;100304.40;218686;1257;140536;-78
2023/09/29 07:01:12;;;;;;;14.00;11.40;;;;;;;17.11;80.14;100306.58;219447;1257;142457;-74
2023/09/29 07:06:17;;;;;;;14.10;11.40;;;;;;;18.37;79.50;100303.63;219318;1255;140431;-72
2023/09/29 07:11:25;;;;;;;14.50;10.10;;;;;;;19.86;77.99;100305.38;217832;1259;142688;-71
2023/09/29 07:16:30;;;;;;;14.40;10.80;;;;;;;21.34;75.76;100307.71;218239;1259;139738;-70
2023/09/29 07:21:34;;;;;;;12.50;10.90;;;;;;;22.67;73.70;100302.77;217887;1259;139674;-71
2023/09/29 07:26:39;;;;;;;9.20;7.80;;;;;;;23.68;70.95;100306.69;218314;1257;139712;-75
2023/09/29 07:31:48;;;;;;;10.90;9.10;;;;;;;24.17;68.56;100314.02;218850;1257;139618;-73
2023/09/29 07:36:53;;;;;;;17.00;9.40;;;;;;;24.48;67.13;100322.89;219039;1256;139491;-74
2023/09/29 07:41:58;;;;;;;15.40;9.90;;;;;;;24.75;66.13;100322.83;218683;1257;140143;-71
2023/09/29 07:47:03;;;;;;;14.30;8.70;;;;;;;24.89;65.29;100325.64;218528;1256;141059;-70
2023/09/29 07:52:08;;;;;;;11.90;9.20;;;;;;;24.95;64.19;100325.92;218605;1256;139982;-67
2023/09/29 07:57:13;;;;;;;;;;;;;;;24.88;63.53;100325.50;218925;1256;140313;-69
2023/09/29 08:02:19;;;;;;;15.00;9.50;;;;;;;24.82;62.73;100320.92;218960;1255;125709;-69
2023/09/29 08:07:24;;;;;;;13.60;8.20;;;;;;;24.89;61.96;100321.27;217934;1257;139457;-71
2023/09/29 08:12:29;;;;;;;15.00;8.10;;;;;;;24.90;61.76;100316.17;218475;1256;140437;-73
2023/09/29 08:17:34;;;;;;;10.70;8.60;;;;;;;24.97;61.02;100318.14;219463;1256;140330;-74
2023/09/29 08:22:39;;;;;;;9.70;7.70;;;;;;;25.00;60.61;100314.74;219722;1256;140198;-75
2023/09/29 08:27:46;;;;;;;9.20;7.90;;;;;;;25.13;60.07;100309.96;220563;1255;138595;-75
2023/09/29 08:32:52;;;;;;;10.90;6.20;;;;;;;25.25;59.47;100309.68;217914;1257;138941;-74
2023/09/29 08:38:14;;;;;;;10.90;7.20;;;;;;;25.37;58.36;100308.45;218304;1255;139809;-75
2023/09/29 08:43:20;;;;;;;8.10;7.30;;;;;;;25.45;57.95;100309.99;219151;1256;139611;-74
2023/09/29 08:48:28;;;;;;;8.20;6.30;;;;;;;25.64;57.59;100307.70;218961;1256;626528;-73
2023/09/29 08:53:34;;;;;;;16.10;7.80;;;;;;;25.67;56.35;100304.80;218583;1256;140282;-73
2023/09/29 08:58:39;;;;;;;8.90;7.80;;;;;;;25.70;55.85;100305.69;218881;1256;140266;-73
2023/09/29 09:03:45;;;;;;;7.20;5.80;;;;;;;25.85;55.57;100297.63;218429;1257;139899;-74
2023/09/29 09:08:54;;;;;;;7.20;6.50;;;;;;;25.87;54.03;100293.42;219181;1257;140195;-75
2023/09/29 09:14:03;;;;;;;12.30;6.20;;;;;;;25.67;53.86;100290.45;217977;1259;139163;-72
2023/09/29 09:19:15;;;;;;;10.80;6.80;;;;;;;25.78;53.77;100284.13;218205;1259;139834;-73
2023/09/29 09:24:21;;;;;;;17.00;7.20;;;;;;;25.98;53.80;100281.34;218503;1256;139693;-73
2023/09/29 09:29:28;;;;;;;10.90;7.20;;;;;;;26.29;53.97;100274.27;219049;1254;140743;-76
2023/09/29 09:34:37;;;;;;;7.70;6.70;;;;;;;26.43;52.19;100273.83;218132;1257;139592;-73
2023/09/29 09:39:44;;;;;;;9.80;6.20;;;;;;;26.31;51.27;100274.98;219084;1256;138729;-74
2023/09/29 09:44:49;;;;;;;6.90;6.20;;;;;;;26.28;50.58;100272.42;219427;1255;140208;-74
2023/09/29 09:49:59;;;;;;;11.50;6.00;;;;;;;26.21;49.87;100269.92;218298;1257;139754;-74
2023/09/29 09:55:15;;;;;;;8.00;5.80;;;;;;;26.24;49.77;100268.16;219191;1255;140216;-75
2023/09/29 10:00:24;;;;;;;8.10;5.90;;;;;;;26.38;49.57;100263.96;218396;1257;139373;-73
2023/09/29 10:05:33;;;;;;;9.30;6.30;;;;;;;26.51;49.17;100257.95;218641;1256;140770;-72
2023/09/29 10:10:41;;;;;;;7.50;6.10;;;;;;;26.71;49.13;100253.98;219830;1255;139553;-73
2023/09/29 10:15:56;;;;;;;10.90;6.50;;;;;;;26.85;48.62;100254.46;220114;1255;140490;-76
2023/09/29 10:21:09;;;;;;;5.80;5.20;;;;;;;26.95;48.17;100250.77;220646;1255;140186;-74
2023/09/29 10:26:14;;;;;;;12.60;6.30;;;;;;;27.15;47.72;100251.23;219901;1255;140277;-73
2023/09/29 10:31:30;;;;;;;12.80;6.90;;;;;;;27.21;47.06;100250.77;219788;1256;140583;-73
2023/09/29 10:36:35;;;;;;;6.90;5.10;;;;;;;27.29;46.48;100242.01;219266;1255;139938;-71
2023/09/29 10:41:41;;;;;;;5.90;5.50;;;;;;;27.30;45.81;100238.20;218983;1257;140196;-73
2023/09/29 10:46:50;;;;;;;7.80;6.10;;;;;;;27.36;46.19;100233.52;217727;1257;139350;-75
2023/09/29 10:51:56;;;;;;;12.20;6.90;;;;;;;27.51;46.22;100227.11;219400;1256;140297;-75
2023/09/29 10:57:02;;;;;;;8.20;5.90;;;;;;;27.59;46.12;100220.28;218082;1259;140088;-74
2023/09/29 11:02:11;;;;;;;8.10;5.50;;;;;;;27.67;45.99;100209.48;218599;1259;140357;-76
2023/09/29 11:07:18;;;;;;;10.30;6.30;;;;;;;27.80;45.70;100204.01;218006;1255;139716;-75
2023/09/29 11:12:26;;;;;;;9.80;6.40;;;;;;;27.84;45.27;100200.58;218173;1257;141684;-74
2023/09/29 11:17:50;;;;;;;5.20;4.60;;;;;;;27.87;44.77;100193.48;218018;1258;140149;-76
2023/09/29 11:23:06;;;;;;;6.70;5.30;;;;;;;27.80;43.93;100186.12;218874;1256;139730;-74
2023/09/29 11:28:16;;;;;;;9.40;5.90;;;;;;;27.85;43.91;100183.16;218062;1257;139688;-74
2023/09/29 11:33:21;;;;;;;16.10;6.90;;;;;;;27.92;43.50;100175.83;218218;1257;139415;-73
2023/09/29 11:38:29;;;;;;;7.30;5.40;;;;;;;27.81;43.05;100176.48;217842;1257;140588;-73
2023/09/29 11:43:36;;;;;;;6.80;5.30;;;;;;;27.80;43.24;100166.11;218405;1256;140159;-74
2023/09/29 11:48:43;;;;;;;;;;;;;;;27.90;43.09;100162.27;218437;1257;141439;-71
2023/09/29 12:01:00;;;;;;;6.00;5.50;;;;;;;27.75;42.12;100152.34;218486;1256;140357;-72
2023/09/29 12:06:07;;;;;;;5.30;4.20;;;;;;;27.75;41.84;100144.52;219203;1257;140768;-72
2023/09/29 12:11:18;;;;;;;7.50;5.60;;;;;;;27.85;41.83;100139.64;219110;1256;140364;-72
2023/09/29 12:17:02;;;;;;;6.40;5.70;;;;;;;27.85;41.50;100130.48;219429;1255;141695;-74
2023/09/29 12:22:06;;;;;;;9.20;5.30;;;;;;;27.91;41.53;100126.94;220761;1256;140567;-73
2023/09/29 12:27:37;;;;;;;6.00;4.80;;;;;;;28.09;41.82;100122.92;218568;1256;138909;-74
2023/09/29 12:32:44;;;;;;;8.70;5.30;;;;;;;28.16;41.14;100125.77;220473;1256;141337;-74
2023/09/29 12:37:51;;;;;;;11.50;5.30;;;;;;;28.10;40.39;100122.10;219643;1257;140212;-72
2023/09/29 12:43:02;;;;;;;11.70;4.90;;;;;;;27.98;40.02;100123.58;219890;1257;141242;-74
2023/09/29 12:48:31;;;;;;;8.20;4.90;;;;;;;27.87;40.22;100122.66;218044;1256;139391;-74
2023/09/29 12:53:36;;;;;;;6.60;5.50;;;;;;;27.69;39.74;100121.91;219097;1257;140760;-73
2023/09/29 12:58:42;;;;;;;7.10;4.60;;;;;;;27.64;40.33;100118.75;218524;1256;140082;-70
2023/09/29 13:04:29;;;;;;;4.80;4.30;;;;;;;27.63;40.14;100118.34;218627;1256;140069;-72
2023/09/29 13:09:35;;;;;;;6.60;4.60;;;;;;;27.67;40.25;100114.15;218311;1259;139385;-70
2023/09/29 13:14:44;;;;;;;5.90;4.70;;;;;;;27.64;39.98;100112.79;218191;1257;139292;-74
2023/09/29 13:20:10;;;;;;;9.80;5.50;;;;;;;27.57;40.24;100109.09;218063;1259;141486;-74
2023/09/29 13:31:58;;;;;;;8.40;6.30;;;;;;;27.41;40.50;100101.04;218344;1259;139224;-74
2023/09/29 13:43:27;;;;;;;12.30;6.20;;;;;;;27.12;40.59;100091.35;218356;1257;221545;-74
2023/09/29 13:48:33;;;;;;;4.60;4.20;;;;;;;27.04;40.62;100083.55;218236;1257;140478;-75
2023/09/29 13:53:41;;;;;;;8.00;5.80;;;;;;;26.86;40.81;100082.15;218147;1259;139859;-73
2023/09/29 13:58:47;;;;;;;6.10;5.50;;;;;;;26.72;40.70;100079.44;218960;1257;139514;-73
2023/09/29 14:03:55;;;;;;;8.60;4.90;;;;;;;26.70;41.12;100077.58;218118;1257;138990;-75
2023/09/29 14:09:02;;;;;;;4.30;3.90;;;;;;;26.71;41.14;100072.20;218146;1259;139443;-73
2023/09/29 14:14:20;;;;;;;5.40;4.80;;;;;;;26.66;40.99;100068.34;218327;1257;139500;-74
2023/09/29 14:19:26;;;;;;;10.70;5.20;;;;;;;26.59;41.13;100068.17;219746;1259;140474;-74
2023/09/29 14:24:32;;;;;;;5.10;3.90;;;;;;;26.36;40.89;100068.84;220531;1259;139863;-75
2023/09/29 14:29:38;;;;;;;8.30;4.80;;;;;;;26.16;40.94;100059.54;220031;1256;140523;-74
2023/09/29 14:34:43;;;;;;;5.50;4.30;;;;;;;26.15;41.37;100053.83;219821;1257;141132;-75
2023/09/29 14:39:48;;;;;;;8.10;4.20;;;;;;;26.04;41.37;100054.77;219188;1259;140163;-73
2023/09/29 14:44:55;;;;;;;11.90;4.70;;;;;;;26.00;41.58;100052.10;220512;1257;140180;-74
2023/09/29 14:50:00;;;;;;;11.80;4.70;;;;;;;25.94;41.67;100051.66;218825;1259;139739;-74
2023/09/29 14:55:06;;;;;;;5.40;4.60;;;;;;;25.84;41.91;100051.09;218561;1257;140810;-73
2023/09/29 15:00:13;;;;;;;5.60;4.60;;;;;;;25.71;42.13;100047.91;218704;1259;139132;-75
2023/09/29 15:05:20;;;;;;;5.60;4.70;;;;;;;25.56;42.70;100049.06;219128;1259;140062;-74
2023/09/29 15:10:25;;;;;;;5.00;4.60;;;;;;;25.43;43.41;100049.69;218900;1256;141702;-74
2023/09/29 15:15:32;;;;;;;6.60;5.00;;;;;;;25.25;44.60;100050.86;218405;1257;140226;-74
2023/09/29 15:20:38;;;;;;;7.30;5.10;;;;;;;25.01;44.63;100058.15;218312;1255;139326;-72
2023/09/29 15:25:51;;;;;;;6.30;5.20;;;;;;;24.79;44.68;100055.70;218246;1257;139565;-75
2023/09/29 15:31:02;;;;;;;7.50;5.60;;;;;;;24.56;44.72;100057.69;218068;1259;140209;-73
2023/09/29 15:36:31;;;;;;;9.00;4.80;;;;;;;24.38;45.12;100058.09;218366;1257;150290;-75
2023/09/29 15:41:37;;;;;;;10.10;4.90;;;;;;;24.21;45.64;100055.30;218525;1257;140013;-74
2023/09/29 15:46:44;;;;;;;8.00;5.40;;;;;;;23.97;45.77;100051.95;217822;1257;139575;-68
2023/09/29 15:51:49;;;;;;;7.20;5.40;;;;;;;23.71;46.41;100049.64;218267;1257;140343;-67
2023/09/29 15:56:55;;;;;;;7.10;5.60;;;;;;;23.47;47.00;100050.61;218620;1259;139479;-70
2023/09/29 16:02:01;;;;;;;11.10;5.80;;;;;;;23.27;47.90;100056.50;218621;1257;140011;-68
2023/09/29 16:07:23;;;;;;;19.60;7.10;;;;;;;23.02;48.43;100057.78;219239;1259;140277;-68
2023/09/29 16:12:29;;;;;;;9.20;5.90;;;;;;;22.76;49.02;100055.84;218261;1259;139675;-76
2023/09/29 16:17:34;;;;;;;12.40;5.90;;;;;;;22.46;49.94;100052.25;218901;1257;139670;-69
2023/09/29 16:22:39;;;;;;;6.10;5.50;;;;;;;22.15;50.59;100049.84;218794;1255;140219;-74
2023/09/29 16:27:46;;;;;;;6.00;5.40;;;;;;;21.88;51.49;100051.78;218717;1257;139877;-72
2023/09/29 16:32:51;;;;;;;11.50;5.70;;;;;;;21.60;52.22;100050.33;218379;1257;139260;-69
2023/09/29 16:37:58;;;;;;;7.50;5.50;;;;;;;21.32;53.01;100048.39;218594;1257;139586;-74
2023/09/29 16:43:04;;;;;;;10.30;5.30;;;;;;;21.02;53.80;100047.55;218318;1257;139982;-74
2023/09/29 16:48:09;;;;;;;5.40;4.90;;;;;;;20.66;54.34;100046.17;218232;1259;139686;-67
2023/09/29 16:53:14;;;;;;;8.00;6.10;;;;;;;20.19;54.97;100050.59;218391;1259;139668;-67
2023/09/29 16:58:19;;;;;;;7.10;6.20;;;;;;;19.76;55.85;100056.95;218335;1259;152152;-69
2023/09/29 17:03:23;;;;;;;8.20;5.60;;;;;;;19.39;56.84;100062.39;219175;1259;140284;-68
2023/09/29 17:15:10;;;;;;;6.50;5.00;;;;;;;18.73;58.88;100057.02;218935;1256;237828;-68
2023/09/29 17:26:56;;;;;;;16.50;9.00;;;;;;;18.16;60.28;100055.32;218037;1258;139425;-72
2023/09/29 17:32:00;;;;;;;16.00;7.40;;;;;;;17.97;60.81;100056.65;217931;1257;140594;-74
2023/09/29 17:37:05;;;;;;;7.90;6.70;;;;;;;17.86;61.37;100059.70;218097;1260;141755;-78
2023/09/29 17:42:23;;;;;;;8.40;6.40;;;;;;;17.70;61.86;100064.23;218270;1260;141445;-70
2023/09/29 17:47:31;;;;;;;13.90;6.50;;;;;;;17.55;62.54;100059.91;218270;1258;140926;-76
2023/09/29 17:52:50;;;;;;;12.30;8.10;;;;;;;17.47;63.12;100059.43;217888;1258;140099;-73
2023/09/29 18:04:23;;;;;;;10.60;7.10;;;;;;;17.29;63.96;100057.21;218643;1257;140730;-70
2023/09/29 18:09:31;;;;;;;18.00;8.70;;;;;;;17.31;64.16;100056.08;218089;1256;140209;-72
2023/09/29 18:14:45;;;;;;;11.20;7.30;;;;;;;17.35;64.07;100050.41;219334;1259;141679;-75
2023/09/29 18:19:51;;;;;;;11.40;8.10;;;;;;;17.44;63.89;100050.39;219579;1256;237252;-69
2023/09/29 18:24:57;;;;;;;9.60;7.40;;;;;;;17.55;63.54;100049.88;218321;1258;140230;-70
2023/09/29 18:30:06;;;;;;;12.10;8.10;;;;;;;17.61;63.07;100050.63;218397;1260;140280;-69
2023/09/29 18:35:12;;;;;;;11.70;7.80;;;;;;;17.65;62.79;100051.41;219110;1260;140649;-81
2023/09/29 18:40:19;;;;;;;11.00;8.90;;;;;;;17.71;62.52;100050.48;218839;1259;140444;-74
2023/09/29 18:45:29;;;;;;;14.80;9.10;;;;;;;17.76;62.07;100046.34;218575;1257;141047;-69
2023/09/29 18:50:37;;;;;;;12.50;7.70;;;;;;;17.77;61.98;100045.31;218184;1257;226985;-70
2023/09/29 18:55:48;;;;;;;17.00;9.40;;;;;;;17.74;61.69;100045.83;219584;1257;140794;-77
2023/09/29 19:01:05;;;;;;;9.40;7.40;;;;;;;17.74;61.56;100047.80;218356;1260;140899;-69
2023/09/29 19:06:27;;;;;;;10.10;7.90;;;;;;;17.72;61.32;100045.02;218816;1255;140428;-70
2023/09/29 19:11:33;;;;;;;7.80;7.10;;;;;;;17.71;61.08;100046.33;218414;1257;141131;-70
2023/09/29 19:16:40;;;;;;;9.60;6.90;;;;;;;17.68;60.83;100040.52;218279;1257;139684;-70
2023/09/29 19:21:51;;;;;;;8.30;7.60;;;;;;;17.63;60.73;100039.31;218724;1258;139095;-73
2023/09/29 19:27:01;;;;;;;17.70;7.50;;;;;;;17.54;60.64;100035.06;218324;1258;139281;-79
2023/09/29 19:32:08;;;;;;;10.10;7.80;;;;;;;17.49;60.78;100044.77;218408;1257;139472;-78
2023/09/29 19:37:17;;;;;;;7.20;6.50;;;;;;;17.41;61.02;100040.38;218730;1259;139762;-77
2023/09/29 19:42:26;;;;;;;19.40;8.20;;;;;;;17.30;61.23;100044.33;218338;1256;140438;-70
2023/09/29 19:47:32;;;;;;;10.30;6.80;;;;;;;17.21;61.52;100045.30;219019;1257;140406;-70
2023/09/29 19:52:43;;;;;;;8.40;7.30;;;;;;;17.12;61.40;100043.20;217823;1257;139641;-70
2023/09/29 19:57:52;;;;;;;9.40;6.90;;;;;;;17.01;61.60;100043.48;219053;1259;139085;-69
2023/09/29 20:03:03;;;;;;;8.40;6.40;;;;;;;16.86;61.77;100039.59;219788;1256;139379;-69
2023/09/29 20:08:21;;;;;;;13.10;6.70;;;;;;;16.77;61.87;100038.42;219283;1257;140550;-69
2023/09/29 20:13:29;;;;;;;10.50;7.80;;;;;;;16.72;62.12;100035.34;218616;1257;141881;-68
2023/09/29 20:18:36;;;;;;;11.40;6.80;;;;;;;16.67;62.12;100036.30;218063;1257;141339;-69
2023/09/29 20:23:43;;;;;;;8.20;6.30;;;;;;;16.65;62.23;100036.50;218580;1256;140358;-71
2023/09/29 20:28:49;;;;;;;11.60;7.30;;;;;;;16.62;62.23;100030.98;219106;1257;141216;-70
2023/09/29 20:33:59;;;;;;;7.80;7.10;;;;;;;16.68;62.22;100027.25;218717;1256;140184;-70
2023/09/29 20:39:06;;;;;;;10.40;6.90;;;;;;;16.78;62.14;100023.94;218279;1257;140112;-71
2023/09/29 20:44:12;;;;;;;6.60;6.00;;;;;;;16.82;62.13;100021.81;219186;1257;140196;-74
2023/09/29 20:49:18;;;;;;;7.50;5.50;;;;;;;16.86;62.03;100017.13;217343;1258;754089;-81
2023/09/29 20:54:24;;;;;;;7.30;5.90;;;;;;;16.88;61.96;100019.77;219318;1257;141651;-82
2023/09/29 20:59:30;;;;;;;9.60;7.10;;;;;;;16.87;61.96;100019.39;218365;1256;140053;-75
2023/09/29 21:04:35;;;;;;;8.70;6.80;;;;;;;16.82;62.03;100011.75;218772;1256;141044;-72
2023/09/29 21:09:44;;;;;;;10.60;6.60;;;;;;;16.80;62.21;100013.48;217911;1257;140636;-71
2023/09/29 21:14:53;;;;;;;12.20;6.90;;;;;;;16.82;62.12;100008.25;219015;1255;140418;-72
2023/09/29 21:20:01;;;;;;;7.40;5.90;;;;;;;16.88;62.18;100009.98;218353;1256;140886;-73
2023/09/29 21:25:11;;;;;;;8.10;6.60;;;;;;;16.92;62.21;100007.77;217823;1257;140371;-73
2023/09/29 21:30:18;;;;;;;10.10;7.10;;;;;;;16.94;62.21;100009.44;218533;1256;139918;-77
2023/09/29 21:35:30;;;;;;;19.10;7.20;;;;;;;16.96;62.37;100009.81;217909;1257;141663;-72
2023/09/29 21:40:37;;;;;;;9.20;7.30;;;;;;;16.98;62.38;100008.69;218756;1256;140123;-71
2023/09/29 21:45:43;;;;;;;10.10;6.80;;;;;;;17.00;62.57;100006.16;219073;1256;140198;-73
2023/09/29 21:50:48;;;;;;;14.10;7.10;;;;;;;17.01;62.59;100005.78;218367;1257;140259;-73
2023/09/29 21:55:55;;;;;;;9.60;7.30;;;;;;;17.03;62.66;100005.14;218040;1257;141590;-74
2023/09/29 22:01:01;;;;;;;;;;;;;;;17.04;62.73;99996.14;218445;1257;140159;-73
2023/09/29 22:06:09;;;;;;;11.70;7.10;;;;;;;17.03;62.82;99996.67;219350;1259;126960;-80
2023/09/29 22:11:16;;;;;;;14.00;7.70;;;;;;;17.07;62.86;99994.69;218250;1256;139948;-74
2023/09/29 22:16:22;;;;;;;9.50;6.80;;;;;;;17.10;62.84;99986.27;220018;1256;140942;-71
2023/09/29 22:21:28;;;;;;;10.90;7.20;;;;;;;17.12;62.87;99975.26;220207;1256;140741;-71
2023/09/29 22:26:35;;;;;;;9.40;8.40;;;;;;;17.15;63.06;99982.31;220379;1255;142452;-72
2023/09/29 22:31:42;;;;;;;12.90;8.40;;;;;;;17.20;62.88;99978.22;220757;1255;141014;-70
2023/09/29 22:36:47;;;;;;;7.50;6.40;;;;;;;17.26;62.85;99965.17;219407;1256;140185;-69
2023/09/29 22:41:52;;;;;;;9.40;7.50;;;;;;;17.31;62.81;99961.60;219764;1256;139797;-69
2023/09/29 22:46:58;;;;;;;9.60;7.80;;;;;;;17.35;62.73;99964.24;219571;1255;141109;-72
2023/09/29 22:52:04;;;;;;;9.80;6.60;;;;;;;17.37;62.72;99960.25;218006;1260;139995;-70
2023/09/29 22:57:11;;;;;;;9.00;6.20;;;;;;;17.39;62.65;99961.38;219540;1256;141187;-70
2023/09/29 23:02:20;;;;;;;9.30;6.30;;;;;;;17.39;62.77;99962.30;217774;1259;221376;-71
2023/09/29 23:07:26;;;;;;;10.80;7.20;;;;;;;17.42;62.66;99968.05;219089;1257;141015;-71
2023/09/29 23:12:32;;;;;;;10.30;7.20;;;;;;;17.43;62.89;99981.02;218780;1256;140209;-71
2023/09/29 23:17:37;;;;;;;8.50;7.60;;;;;;;17.47;62.86;99983.70;217979;1256;139962;-73
2023/09/29 23:22:44;;;;;;;7.60;6.70;;;;;;;17.49;62.74;99985.15;217639;1257;141511;-69
2023/09/29 23:27:49;;;;;;;7.80;6.50;;;;;;;17.50;62.63;99980.45;218824;1257;140695;-71
2023/09/29 23:32:55;;;;;;;8.80;7.70;;;;;;;17.52;62.75;99981.05;218624;1256;141041;-73
2023/09/29 23:38:02;;;;;;;12.20;7.70;;;;;;;17.52;63.24;99983.74;217667;1256;141088;-75
2023/09/29 23:43:10;;;;;;;9.70;7.30;;;;;;;17.49;63.24;99978.09;217934;1256;139853;-77
2023/09/29 23:48:16;;;;;;;9.90;7.40;;;;;;;17.46;63.39;99979.92;218762;1256;140044;-75